Time;durP1;ratioP1;P1;durP2;ratioP2;P2;SDS_P1;SDS_P2;PMS_P1;PMS_P2;Temp;Humidity;BMP_temperature;BMP_pressure;BME280_temperature;BME280_humidity;BME280_pressure;Samples;Min_cycle;Max_cycle;Signal;HPM_P1;HPM_P2
2022/05/31 00:01:37;;;;;;;;;;;11.00;99.90;;;;;;5031378;28;19963;-73
2022/05/31 00:04:06;;;;;;;;;;;11.00;99.90;;;;;;5031606;28;20429;-73
2022/05/31 00:06:35;;;;;;;;;;;11.00;99.90;;;;;;5031191;28;19967;-73
2022/05/31 00:09:03;;;;;;;;;;;11.00;99.90;;;;;;5033065;28;20073;-73
2022/05/31 00:11:31;;;;;;;;;;;11.00;99.90;;;;;;5033077;28;20456;-73
2022/05/31 00:13:59;;;;;;;;;;;11.00;99.90;;;;;;5031270;28;20066;-73
2022/05/31 00:16:26;;;;;;;;;;;11.10;99.90;;;;;;5029038;28;20085;-74
2022/05/31 00:18:55;;;;;;;;;;;11.10;99.90;;;;;;5030316;28;19969;-74
2022/05/31 00:21:23;;;;;;;;;;;11.10;99.90;;;;;;5031184;28;19970;-70
2022/05/31 00:23:52;;;;;;;;;;;11.00;99.90;;;;;;5030787;28;19994;-72
2022/05/31 00:26:20;;;;;;;;;;;11.00;99.90;;;;;;5025940;28;19959;-73
2022/05/31 00:28:48;;;;;;;;;;;11.00;99.90;;;;;;5031094;28;20097;-73
2022/05/31 00:31:16;;;;;;;;;;;11.00;99.90;;;;;;5030265;28;19963;-73
2022/05/31 00:33:44;;;;;;;;;;;11.10;99.90;;;;;;5030753;28;19974;-73
2022/05/31 00:36:11;;;;;;;;;;;11.00;99.90;;;;;;5029266;28;20508;-74
2022/05/31 00:38:39;;;;;;;;;;;11.00;99.90;;;;;;5031044;28;20745;-72
2022/05/31 00:41:24;;;;;;;;;;;11.00;99.90;;;;;;5028882;28;20009;-73
2022/05/31 00:43:52;;;;;;;;;;;11.00;99.90;;;;;;5030952;28;20651;-73
2022/05/31 00:46:21;;;;;;;;;;;11.00;99.90;;;;;;5026965;28;20054;-73
2022/05/31 00:48:50;;;;;;;;;;;11.00;99.90;;;;;;5030803;28;19963;-74
2022/05/31 00:51:19;;;;;;;;;;;11.00;99.90;;;;;;5029226;28;19963;-72
2022/05/31 00:53:49;;;;;;;;;;;11.00;99.90;;;;;;5028891;28;20014;-74
2022/05/31 00:56:20;;;;;;;;;;;11.00;99.90;;;;;;5027439;28;20142;-74
2022/05/31 00:58:56;;;;;;;;;;;11.00;99.90;;;;;;5029374;28;20058;-73
2022/05/31 01:01:24;;;;;;;;;;;11.00;99.90;;;;;;5029155;28;19963;-73
2022/05/31 01:03:52;;;;;;;;;;;10.90;99.90;;;;;;5024517;28;19966;-73
2022/05/31 01:06:20;;;;;;;;;;;10.80;99.90;;;;;;5024969;28;19966;-73
2022/05/31 01:08:49;;;;;;;;;;;10.80;99.90;;;;;;5021246;28;20463;-73
2022/05/31 01:11:20;;;;;;;;;;;10.80;99.90;;;;;;5036506;28;19963;-73
2022/05/31 01:13:48;;;;;;;;;;;10.80;99.90;;;;;;5029387;28;20420;-73
2022/05/31 01:16:22;;;;;;;;;;;10.80;99.90;;;;;;5030300;28;19967;-73
2022/05/31 01:18:55;;;;;;;;;;;10.80;99.90;;;;;;5028247;28;19974;-73
2022/05/31 01:21:24;;;;;;;;;;;10.80;99.90;;;;;;5028637;28;20241;-73
2022/05/31 01:23:56;;;;;;;;;;;10.80;99.90;;;;;;5029265;28;20976;-73
2022/05/31 01:26:27;;;;;;;;;;;10.80;99.90;;;;;;5029803;28;20060;-73
2022/05/31 01:28:59;;;;;;;;;;;10.80;99.90;;;;;;5030126;28;19999;-73
2022/05/31 01:31:29;;;;;;;;;;;10.80;99.90;;;;;;5026822;28;19990;-71
2022/05/31 01:33:59;;;;;;;;;;;10.90;99.90;;;;;;5029702;28;20054;-73
2022/05/31 01:36:31;;;;;;;;;;;10.90;99.90;;;;;;5028570;28;19963;-73
2022/05/31 01:39:01;;;;;;;;;;;10.90;99.90;;;;;;5032881;28;20506;-73
2022/05/31 01:41:33;;;;;;;;;;;10.90;99.90;;;;;;5031974;28;19959;-73
2022/05/31 01:44:02;;;;;;;;;;;10.90;99.90;;;;;;5030010;28;20009;-73
2022/05/31 01:46:32;;;;;;;;;;;10.90;99.90;;;;;;5028255;28;20002;-73
2022/05/31 01:49:01;;;;;;;;;;;10.90;99.90;;;;;;5030224;28;19959;-74
2022/05/31 01:51:30;;;;;;;;;;;10.90;99.90;;;;;;5028775;28;20043;-73
2022/05/31 01:53:58;;;;;;;;;;;10.90;99.90;;;;;;5029206;28;20682;-73
2022/05/31 01:56:27;;;;;;;;;;;10.90;99.90;;;;;;5024562;28;19967;-69
2022/05/31 01:58:55;;;;;;;;;;;11.00;99.90;;;;;;5028061;28;19963;-72
2022/05/31 02:01:28;;;;;;;;;;;11.00;99.90;;;;;;5022854;28;20048;-71
2022/05/31 02:03:56;;;;;;;;;;;11.00;99.90;;;;;;5029656;28;20142;-71
2022/05/31 02:06:25;;;;;;;;;;;11.00;99.90;;;;;;5029192;28;20483;-71
2022/05/31 02:08:54;;;;;;;;;;;11.00;99.90;;;;;;5029055;28;19972;-71
2022/05/31 02:11:22;;;;;;;;;;;11.00;99.90;;;;;;5034183;28;20002;-71
2022/05/31 02:13:50;;;;;;;;;;;10.90;99.90;;;;;;5027826;28;20016;-71
2022/05/31 02:16:18;;;;;;;;;;;11.00;99.90;;;;;;5030174;28;20009;-71
2022/05/31 02:21:36;;;;;;;;;;;11.00;99.90;;;;;;5028488;28;19968;-71
2022/05/31 02:24:07;;;;;;;;;;;10.90;99.90;;;;;;5025627;28;20031;-71
2022/05/31 02:26:35;;;;;;;;;;;10.90;99.90;;;;;;5029903;28;21170;-71
2022/05/31 02:29:03;;;;;;;;;;;10.90;99.90;;;;;;5028462;28;20160;-71
2022/05/31 02:31:31;;;;;;;;;;;10.90;99.90;;;;;;5028013;28;20115;-71
2022/05/31 02:33:59;;;;;;;;;;;10.90;99.90;;;;;;5027487;28;19973;-71
2022/05/31 02:36:27;;;;;;;;;;;10.90;99.90;;;;;;5029678;28;20374;-71
2022/05/31 02:38:55;;;;;;;;;;;11.00;99.90;;;;;;5030667;28;20314;-71
2022/05/31 02:41:24;;;;;;;;;;;10.90;99.90;;;;;;5035521;28;20041;-71
2022/05/31 02:43:52;;;;;;;;;;;10.90;99.90;;;;;;5028389;28;20001;-71
2022/05/31 02:46:20;;;;;;;;;;;10.90;99.90;;;;;;5029704;28;20010;-71
2022/05/31 02:48:48;;;;;;;;;;;10.90;99.90;;;;;;5027180;28;20021;-71
2022/05/31 02:51:16;;;;;;;;;;;10.90;99.90;;;;;;5029200;28;19963;-73
2022/05/31 02:53:44;;;;;;;;;;;10.90;99.90;;;;;;5027754;28;19995;-68
2022/05/31 02:56:12;;;;;;;;;;;10.90;99.90;;;;;;5029710;28;20003;-72
2022/05/31 02:58:41;;;;;;;;;;;10.90;99.90;;;;;;5028377;28;19967;-70
2022/05/31 03:01:19;;;;;;;;;;;10.90;99.90;;;;;;5032273;28;20066;-69
2022/05/31 03:03:47;;;;;;;;;;;11.00;99.90;;;;;;5031880;28;20796;-70
2022/05/31 03:06:14;;;;;;;;;;;11.00;99.90;;;;;;5038231;28;19964;-71
2022/05/31 03:08:42;;;;;;;;;;;11.10;99.90;;;;;;5032826;28;20341;-71
2022/05/31 03:11:15;;;;;;;;;;;11.20;99.90;;;;;;5032865;28;19971;-71
2022/05/31 03:13:46;;;;;;;;;;;11.40;99.90;;;;;;5032271;28;19971;-71
2022/05/31 03:16:14;;;;;;;;;;;11.30;99.90;;;;;;5033263;28;20066;-70
2022/05/31 03:18:44;;;;;;;;;;;11.30;99.90;;;;;;5026886;28;19967;-71
2022/05/31 03:21:21;;;;;;;;;;;11.20;99.90;;;;;;5033052;28;19963;-71
2022/05/31 03:23:52;;;;;;;;;;;11.10;99.90;;;;;;5032483;28;19967;-71
2022/05/31 03:26:21;;;;;;;;;;;11.10;99.90;;;;;;5035002;28;20005;-71
2022/05/31 03:28:51;;;;;;;;;;;11.10;99.90;;;;;;5032770;28;20014;-70
2022/05/31 03:31:19;;;;;;;;;;;11.10;99.90;;;;;;5032693;28;20017;-70
2022/05/31 03:33:47;;;;;;;;;;;11.10;99.90;;;;;;5032066;28;20517;-71
2022/05/31 03:36:14;;;;;;;;;;;11.00;99.90;;;;;;5032124;28;19967;-71
2022/05/31 03:38:42;;;;;;;;;;;11.00;99.90;;;;;;5033617;28;20017;-70
2022/05/31 03:41:10;;;;;;;;;;;11.00;99.90;;;;;;5030225;28;20002;-71
2022/05/31 03:43:37;;;;;;;;;;;10.90;99.90;;;;;;5031103;28;20062;-70
2022/05/31 03:46:10;;;;;;;;;;;10.90;99.90;;;;;;5031975;28;20424;-71
2022/05/31 03:48:38;;;;;;;;;;;11.00;99.90;;;;;;5031556;28;20013;-71
2022/05/31 03:51:07;;;;;;;;;;;11.00;99.90;;;;;;5031315;28;20070;-70
2022/05/31 03:53:35;;;;;;;;;;;11.00;99.90;;;;;;5030542;28;20647;-71
2022/05/31 03:56:03;;;;;;;;;;;11.10;99.90;;;;;;5029048;28;20021;-71
2022/05/31 03:58:31;;;;;;;;;;;11.20;99.90;;;;;;5028740;28;19998;-71
2022/05/31 04:00:59;;;;;;;;;;;11.30;99.90;;;;;;5029817;28;19998;-70
2022/05/31 04:03:28;;;;;;;;;;;11.40;99.90;;;;;;5030991;28;20376;-70
2022/05/31 04:06:00;;;;;;;;;;;11.50;99.90;;;;;;5030542;28;19959;-71
2022/05/31 04:08:28;;;;;;;;;;;11.40;99.90;;;;;;5028551;28;19998;-70
2022/05/31 04:10:56;;;;;;;;;;;11.50;99.90;;;;;;5026737;28;19998;-72
2022/05/31 04:13:25;;;;;;;;;;;11.50;99.90;;;;;;5029143;28;19959;-71
2022/05/31 04:16:02;;;;;;;;;;;11.40;99.90;;;;;;5031770;28;19962;-71
2022/05/31 04:18:32;;;;;;;;;;;11.40;99.90;;;;;;5026004;28;20579;-70
2022/05/31 04:21:00;;;;;;;;;;;11.40;99.90;;;;;;5031384;28;20066;-71
2022/05/31 04:26:14;;;;;;;;;;;11.30;99.90;;;;;;5029857;28;20007;-71
2022/05/31 04:28:42;;;;;;;;;;;11.30;99.90;;;;;;5030207;28;19962;-72
2022/05/31 04:31:12;;;;;;;;;;;11.20;99.90;;;;;;5027230;28;19963;-71
2022/05/31 04:33:41;;;;;;;;;;;11.20;99.90;;;;;;5028940;28;20010;-72
2022/05/31 04:36:10;;;;;;;;;;;11.20;99.90;;;;;;5030683;28;20014;-71
2022/05/31 04:38:38;;;;;;;;;;;11.20;99.90;;;;;;5029315;28;19982;-70
2022/05/31 04:41:07;;;;;;;;;;;11.20;99.90;;;;;;5030240;28;19963;-72
2022/05/31 04:43:35;;;;;;;;;;;11.20;99.90;;;;;;5029688;28;19959;-71
2022/05/31 04:46:12;;;;;;;;;;;11.20;99.90;;;;;;5031252;28;20029;-71
2022/05/31 04:48:41;;;;;;;;;;;11.20;99.90;;;;;;5016258;28;19963;-68
2022/05/31 04:51:09;;;;;;;;;;;11.30;99.90;;;;;;5014381;28;19994;-69
2022/05/31 04:53:37;;;;;;;;;;;11.30;99.90;;;;;;5014775;28;20070;-68
2022/05/31 04:56:06;;;;;;;;;;;11.40;99.90;;;;;;5014471;28;20494;-69
2022/05/31 04:58:34;;;;;;;;;;;11.40;99.90;;;;;;5015258;28;20007;-69
2022/05/31 05:01:02;;;;;;;;;;;11.50;99.90;;;;;;5014903;28;19967;-69
2022/05/31 05:03:30;;;;;;;;;;;11.60;99.90;;;;;;5013369;28;20066;-69
2022/05/31 05:06:02;;;;;;;;;;;11.70;99.90;;;;;;5014459;28;20878;-69
2022/05/31 05:08:30;;;;;;;;;;;11.70;99.90;;;;;;5014943;28;21574;-69
2022/05/31 05:10:59;;;;;;;;;;;11.80;99.90;;;;;;5014814;28;19967;-69
2022/05/31 05:13:27;;;;;;;;;;;11.80;99.90;;;;;;5013432;28;20069;-69
2022/05/31 05:15:55;;;;;;;;;;;11.90;99.90;;;;;;5012050;28;19971;-69
2022/05/31 05:18:23;;;;;;;;;;;12.00;99.90;;;;;;5014576;28;19971;-69
2022/05/31 05:20:51;;;;;;;;;;;12.10;99.90;;;;;;5015568;28;20014;-69
2022/05/31 05:23:20;;;;;;;;;;;12.20;99.90;;;;;;5012994;28;20098;-69
2022/05/31 05:25:49;;;;;;;;;;;12.30;99.90;;;;;;5011342;28;19963;-70
2022/05/31 05:31:02;;;;;;;;;;;12.50;99.90;;;;;;5014376;28;20559;-70
2022/05/31 05:33:31;;;;;;;;;;;12.60;99.90;;;;;;5012012;28;20005;-69
2022/05/31 05:35:59;;;;;;;;;;;12.70;99.90;;;;;;5011737;28;20014;-69
2022/05/31 05:38:28;;;;;;;;;;;12.80;99.90;;;;;;5015079;28;20057;-69
2022/05/31 05:40:56;;;;;;;;;;;12.90;99.90;;;;;;5014723;28;19967;-70
2022/05/31 05:43:23;;;;;;;;;;;13.00;99.90;;;;;;5013230;28;20066;-69
2022/05/31 05:45:51;;;;;;;;;;;13.00;99.90;;;;;;5010788;28;20139;-71
2022/05/31 05:48:19;;;;;;;;;;;13.10;99.90;;;;;;5012322;28;19971;-70
2022/05/31 05:50:48;;;;;;;;;;;13.20;99.90;;;;;;5013371;28;20635;-70
2022/05/31 05:53:15;;;;;;;;;;;13.40;99.90;;;;;;5010548;28;19967;-71
2022/05/31 05:55:44;;;;;;;;;;;13.70;99.90;;;;;;5010982;28;19977;-70
2022/05/31 05:58:13;;;;;;;;;;;13.80;99.90;;;;;;5011902;28;19973;-71
2022/05/31 06:00:43;;;;;;;;;;;13.60;99.90;;;;;;5014571;28;20567;-69
2022/05/31 06:03:12;;;;;;;;;;;13.40;99.90;;;;;;5015054;28;20058;-70
2022/05/31 06:05:40;;;;;;;;;;;13.30;99.90;;;;;;5014123;28;19974;-69
2022/05/31 06:08:10;;;;;;;;;;;13.40;99.90;;;;;;5014054;28;20014;-70
2022/05/31 06:10:39;;;;;;;;;;;13.40;99.90;;;;;;5014582;28;20054;-69
2022/05/31 06:13:10;;;;;;;;;;;13.50;99.90;;;;;;5012965;28;20062;-70
2022/05/31 06:15:40;;;;;;;;;;;13.60;99.90;;;;;;5010764;28;20137;-68
2022/05/31 06:18:11;;;;;;;;;;;13.60;99.90;;;;;;5010270;28;19967;-69
2022/05/31 06:20:39;;;;;;;;;;;13.70;99.90;;;;;;5013655;28;20397;-71
2022/05/31 06:23:07;;;;;;;;;;;13.70;99.90;;;;;;5013954;28;19967;-69
2022/05/31 06:25:35;;;;;;;;;;;13.60;99.90;;;;;;5013901;28;20002;-69
2022/05/31 06:28:02;;;;;;;;;;;13.50;99.90;;;;;;5013440;28;20085;-68
2022/05/31 06:30:31;;;;;;;;;;;13.60;99.90;;;;;;5014451;28;20034;-69
2022/05/31 06:32:59;;;;;;;;;;;13.90;99.90;;;;;;5013221;28;20088;-69
2022/05/31 06:35:27;;;;;;;;;;;14.20;99.90;;;;;;5015983;28;20089;-68
2022/05/31 06:37:55;;;;;;;;;;;14.50;99.90;;;;;;5018306;28;20025;-69
2022/05/31 06:40:22;;;;;;;;;;;14.70;99.90;;;;;;5018090;28;20005;-69
2022/05/31 06:42:50;;;;;;;;;;;14.60;99.90;;;;;;5017252;28;19998;-69
2022/05/31 06:45:18;;;;;;;;;;;14.50;99.90;;;;;;5016029;28;20052;-69
2022/05/31 06:47:47;;;;;;;;;;;14.30;99.90;;;;;;5016613;28;19963;-69
2022/05/31 06:50:15;;;;;;;;;;;14.30;99.90;;;;;;5018004;28;20849;-70
2022/05/31 06:58:13;;;;;;;;;;;14.40;99.90;;;;;;5017873;28;20103;-69
2022/05/31 07:00:41;;;;;;;;;;;14.40;99.90;;;;;;5017631;28;27216;-69
2022/05/31 07:03:13;;;;;;;;;;;14.80;99.90;;;;;;5017043;28;19975;-69
2022/05/31 07:05:41;;;;;;;;;;;15.00;99.90;;;;;;5016170;28;20079;-70
2022/05/31 07:08:10;;;;;;;;;;;15.00;99.90;;;;;;5017262;28;20069;-71
2022/05/31 07:10:39;;;;;;;;;;;15.00;99.90;;;;;;5017684;28;20052;-70
2022/05/31 07:13:07;;;;;;;;;;;14.90;99.90;;;;;;5016560;28;20014;-69
2022/05/31 07:15:35;;;;;;;;;;;14.90;99.90;;;;;;5015950;28;20481;-69
2022/05/31 07:18:24;;;;;;;;;;;15.10;99.90;;;;;;5018227;28;20017;-69
2022/05/31 07:20:52;;;;;;;;;;;15.20;99.90;;;;;;5017888;28;20174;-70
2022/05/31 07:23:19;;;;;;;;;;;15.10;99.90;;;;;;5016873;28;20652;-70
2022/05/31 07:25:47;;;;;;;;;;;15.00;99.90;;;;;;5015769;28;20081;-70
2022/05/31 07:28:15;;;;;;;;;;;15.10;99.90;;;;;;5016307;28;20528;-70
2022/05/31 07:30:43;;;;;;;;;;;15.20;99.90;;;;;;5014285;28;20074;-69
2022/05/31 07:33:12;;;;;;;;;;;15.20;99.90;;;;;;5016291;28;19998;-69
2022/05/31 07:36:03;;;;;;;;;;;15.20;99.90;;;;;;5016193;28;19981;-69
2022/05/31 07:38:31;;;;;;;;;;;15.10;99.90;;;;;;5016843;28;20012;-70
2022/05/31 07:41:00;;;;;;;;;;;15.00;99.90;;;;;;5017784;28;20133;-70
2022/05/31 07:43:27;;;;;;;;;;;14.90;99.90;;;;;;5014233;28;19991;-70
2022/05/31 07:46:06;;;;;;;;;;;14.90;99.90;;;;;;5014684;28;20019;-69
2022/05/31 07:48:34;;;;;;;;;;;15.10;99.90;;;;;;5017606;28;20082;-69
2022/05/31 07:51:03;;;;;;;;;;;15.20;99.90;;;;;;5016506;28;20449;-70
2022/05/31 07:53:31;;;;;;;;;;;15.30;99.90;;;;;;5017659;28;20014;-69
2022/05/31 07:56:00;;;;;;;;;;;15.40;99.90;;;;;;5013359;28;19971;-68
2022/05/31 07:58:37;;;;;;;;;;;15.30;99.90;;;;;;5015865;28;21626;-69
2022/05/31 08:01:06;;;;;;;;;;;15.50;99.90;;;;;;5016534;28;20050;-69
2022/05/31 08:03:34;;;;;;;;;;;15.60;99.90;;;;;;5016219;28;19991;-69
2022/05/31 08:06:04;;;;;;;;;;;15.80;99.90;;;;;;5014778;28;20107;-69
2022/05/31 08:08:32;;;;;;;;;;;15.80;99.90;;;;;;5017092;28;20072;-69
2022/05/31 08:11:03;;;;;;;;;;;15.80;99.90;;;;;;5016757;28;19986;-69
2022/05/31 08:13:31;;;;;;;;;;;15.80;99.90;;;;;;5016031;28;20095;-69
2022/05/31 08:15:59;;;;;;;;;;;15.70;99.90;;;;;;5015118;28;20295;-69
2022/05/31 08:18:27;;;;;;;;;;;15.80;99.90;;;;;;5016586;28;19995;-69
2022/05/31 08:20:58;;;;;;;;;;;16.10;99.90;;;;;;5015905;28;20126;-68
2022/05/31 08:23:27;;;;;;;;;;;16.60;99.90;;;;;;5016576;28;20033;-70
2022/05/31 08:25:56;;;;;;;;;;;17.00;99.90;;;;;;5014867;28;20068;-70
2022/05/31 08:28:24;;;;;;;;;;;17.20;99.90;;;;;;5016209;28;20966;-70
2022/05/31 08:30:54;;;;;;;;;;;17.40;99.90;;;;;;5014998;28;20539;-69
2022/05/31 08:33:24;;;;;;;;;;;17.60;99.90;;;;;;5016061;28;20156;-69
2022/05/31 08:35:52;;;;;;;;;;;17.80;99.90;;;;;;5014494;28;20005;-69
2022/05/31 08:38:31;;;;;;;;;;;17.90;99.90;;;;;;5015286;28;19968;-69
2022/05/31 08:41:09;;;;;;;;;;;18.10;99.90;;;;;;5015387;28;20448;-70
2022/05/31 08:43:48;;;;;;;;;;;18.30;99.90;;;;;;5015982;28;19974;-70
2022/05/31 08:46:19;;;;;;;;;;;18.20;99.90;;;;;;5014510;28;20017;-70
2022/05/31 08:48:57;;;;;;;;;;;18.20;99.90;;;;;;5016008;28;19976;-70
2022/05/31 08:57:18;;;;;;;;;;;19.00;99.90;;;;;;5013356;28;20037;-69
2022/05/31 08:59:49;;;;;;;;;;;19.10;99.90;;;;;;5016170;28;20676;-70
2022/05/31 09:02:19;;;;;;;;;;;19.10;99.90;;;;;;5016391;28;20043;-70
2022/05/31 09:05:03;;;;;;;;;;;19.20;99.90;;;;;;5015599;28;20649;-70
2022/05/31 09:07:34;;;;;;;;;;;19.30;99.90;;;;;;5013031;28;19966;-69
2022/05/31 09:10:06;;;;;;;;;;;19.60;99.50;;;;;;5015679;28;20089;-69
2022/05/31 09:12:38;;;;;;;;;;;19.60;99.40;;;;;;5014673;28;19963;-69
2022/05/31 09:15:10;;;;;;;;;;;19.70;99.80;;;;;;5015026;28;20066;-69
2022/05/31 09:17:45;;;;;;;;;;;20.00;99.30;;;;;;5015086;28;20066;-70
2022/05/31 09:20:15;;;;;;;;;;;20.30;99.80;;;;;;5014491;28;19972;-68
2022/05/31 09:22:44;;;;;;;;;;;20.30;98.40;;;;;;5013698;28;20058;-70
2022/05/31 09:25:14;;;;;;;;;;;20.50;98.60;;;;;;5013344;28;20447;-69
2022/05/31 09:27:42;;;;;;;;;;;20.60;98.80;;;;;;5014286;28;20014;-71
2022/05/31 09:30:12;;;;;;;;;;;20.80;98.10;;;;;;5015193;28;20079;-70
2022/05/31 09:33:06;;;;;;;;;;;20.70;97.80;;;;;;5013264;28;19969;-70
2022/05/31 09:35:50;;;;;;;;;;;20.90;97.50;;;;;;5013264;28;19978;-69
2022/05/31 09:38:32;;;;;;;;;;;21.20;98.20;;;;;;5015930;28;19967;-72
2022/05/31 09:41:06;;;;;;;;;;;21.50;97.80;;;;;;5056067;22;20105;-63
2022/05/31 09:43:36;;;;;;;;;;;21.40;97.10;;;;;;5045326;28;19963;-64
2022/05/31 09:46:06;;;;;;;;;;;21.40;96.40;;;;;;5049686;28;19963;-63
2022/05/31 09:48:34;;;;;;;;;;;21.60;96.70;;;;;;5069653;28;20119;-64
2022/05/31 09:51:10;;;;;;;;;;;21.70;95.90;;;;;;5063997;28;19972;-64
2022/05/31 09:59:22;;;;;;;;;;;21.10;96.70;;;;;;5044186;28;19963;-63
2022/05/31 10:01:51;;;;;;;;;;;21.30;96.80;;;;;;5050890;28;20015;-64
2022/05/31 10:04:23;;;;;;;;;;;21.50;95.90;;;;;;5049889;28;20498;-63
2022/05/31 10:07:00;;;;;;;;;;;21.50;94.70;;;;;;5050620;28;20053;-63
2022/05/31 10:09:33;;;;;;;;;;;21.80;94.70;;;;;;5053192;28;19967;-64
2022/05/31 10:12:15;;;;;;;;;;;22.30;93.60;;;;;;5048828;28;19966;-64
2022/05/31 10:14:44;;;;;;;;;;;23.00;93.50;;;;;;5051691;28;19966;-64
2022/05/31 10:17:28;;;;;;;;;;;23.00;92.90;;;;;;5054151;28;19962;-64
2022/05/31 10:20:06;;;;;;;;;;;22.60;93.30;;;;;;5054535;28;20006;-64
2022/05/31 10:22:35;;;;;;;;;;;22.30;93.60;;;;;;5054116;28;20305;-64
2022/05/31 10:25:18;;;;;;;;;;;21.90;94.10;;;;;;5054603;28;19998;-63
2022/05/31 10:27:47;;;;;;;;;;;21.70;95.20;;;;;;5054271;28;20005;-64
2022/05/31 10:30:20;;;;;;;;;;;21.40;94.90;;;;;;5054314;28;19967;-63
2022/05/31 10:32:50;;;;;;;;;;;21.20;95.60;;;;;;5053531;28;19963;-64
2022/05/31 10:35:19;;;;;;;;;;;21.20;95.50;;;;;;5054055;28;19963;-63
2022/05/31 10:37:49;;;;;;;;;;;20.90;94.70;;;;;;5053752;28;20448;-64
2022/05/31 10:40:19;;;;;;;;;;;20.80;94.90;;;;;;5048170;28;20058;-64
2022/05/31 10:42:49;;;;;;;;;;;20.60;95.30;;;;;;5053385;28;19963;-63
2022/05/31 10:45:20;;;;;;;;;;;20.90;95.40;;;;;;5053954;28;19973;-64
2022/05/31 10:47:48;;;;;;;;;;;21.50;97.00;;;;;;5053890;28;19969;-63
2022/05/31 10:50:16;;;;;;;;;;;22.10;94.70;;;;;;5053714;28;20651;-63
2022/05/31 10:52:48;;;;;;;;;;;22.60;93.70;;;;;;5052805;28;19998;-63
2022/05/31 10:55:28;;;;;;;;;;;22.90;93.80;;;;;;5038389;28;20054;-63
2022/05/31 10:58:07;;;;;;;;;;;23.10;94.20;;;;;;5037572;28;20069;-63
2022/05/31 11:00:37;;;;;;;;;;;23.30;93.10;;;;;;5037895;28;19994;-63
2022/05/31 11:03:18;;;;;;;;;;;23.60;93.30;;;;;;5038293;28;19998;-63
2022/05/31 11:05:52;;;;;;;;;;;23.80;92.50;;;;;;5037109;28;19970;-63
2022/05/31 11:11:29;;;;;;;;;;;24.70;91.40;;;;;;5033916;28;19967;-64
2022/05/31 11:14:07;;;;;;;;;;;25.00;90.60;;;;;;5038109;28;20762;-63
2022/05/31 11:16:40;;;;;;;;;;;25.30;90.50;;;;;;5037782;28;19967;-63
2022/05/31 11:19:16;;;;;;;;;;;25.30;90.10;;;;;;5038087;28;20191;-63
2022/05/31 11:21:50;;;;;;;;;;;25.50;86.70;;;;;;5035611;28;20333;-63
2022/05/31 11:24:32;;;;;;;1.83;1.27;;;25.90;84.10;;;;;;5036091;28;21102;-64
2022/05/31 11:27:12;;;;;;;2.78;1.60;;;26.10;86.60;;;;;;5037406;28;20311;-64
2022/05/31 11:30:05;;;;;;;4.03;1.60;;;26.10;84.70;;;;;;5037293;28;20665;-64
2022/05/31 11:32:47;;;;;;;2.95;1.10;;;26.00;83.40;;;;;;5036257;28;20200;-64
2022/05/31 11:35:29;;;;;;;2.03;1.27;;;26.40;86.90;;;;;;5036196;28;20214;-65
2022/05/31 11:38:04;;;;;;;2.35;1.80;;;26.20;84.20;;;;;;5036720;28;20226;-64
2022/05/31 11:40:41;;;;;;;2.33;1.50;;;26.30;83.30;;;;;;5034528;28;21192;-64
2022/05/31 11:43:45;;;;;;;2.05;1.77;;;26.40;82.40;;;;;;5036999;28;20207;-63
2022/05/31 11:46:24;;;;;;;2.55;1.52;;;26.90;82.70;;;;;;5021971;28;20206;-64
2022/05/31 11:48:59;;;;;;;1.80;1.38;;;27.00;83.00;;;;;;5036544;28;20200;-63
2022/05/31 11:51:49;;;;;;;1.50;1.40;;;26.90;79.60;;;;;;5035233;28;20253;-63
2022/05/31 11:58:05;;;;;;;7.38;1.20;;;27.60;77.70;;;;;;4951853;28;20246;-64
2022/05/31 12:00:39;;;;;;;4.47;1.52;;;27.70;76.70;;;;;;5035039;28;20330;-63
2022/05/31 12:03:17;;;;;;;1.88;1.50;;;27.90;76.80;;;;;;5036082;28;20207;-64
2022/05/31 12:05:51;;;;;;;1.50;1.38;;;27.80;76.60;;;;;;5034563;28;20231;-64
2022/05/31 12:08:25;;;;;;;6.68;1.45;;;28.20;73.10;;;;;;5036495;28;20317;-64
2022/05/31 12:10:54;;;;;;;3.10;1.55;;;27.40;72.00;;;;;;5027446;28;20787;-64
2022/05/31 12:13:23;;;;;;;3.10;1.40;;;27.20;73.10;;;;;;5031961;28;20206;-64
2022/05/31 12:15:54;;;;;;;2.50;1.20;;;26.90;73.00;;;;;;5036449;28;20834;-64
2022/05/31 12:18:35;;;;;;;2.47;1.10;;;26.80;72.00;;;;;;5036520;28;20220;-65
2022/05/31 12:21:12;;;;;;;1.75;1.23;;;27.10;69.40;;;;;;5036088;28;20347;-64
2022/05/31 12:23:45;;;;;;;3.58;1.33;;;26.80;68.60;;;;;;5035724;28;20770;-63
2022/05/31 12:26:23;;;;;;;1.35;1.25;;;25.90;67.60;;;;;;5035252;28;20232;-63
2022/05/31 12:28:56;;;;;;;2.00;1.27;;;25.30;68.80;;;;;;5036188;28;20227;-62
2022/05/31 12:31:27;;;;;;;1.70;1.20;;;25.10;69.10;;;;;;5036132;28;21075;-62
2022/05/31 12:34:13;;;;;;;4.22;1.10;;;24.90;70.80;;;;;;5035056;28;20306;-64
2022/05/31 12:37:03;;;;;;;1.75;1.45;;;24.70;70.10;;;;;;5035438;28;20358;-63
2022/05/31 12:39:33;;;;;;;1.48;1.35;;;25.00;71.60;;;;;;5036170;28;20862;-64
2022/05/31 12:42:31;;;;;;;1.85;1.00;;;25.40;70.80;;;;;;5035278;28;20208;-64
2022/05/31 12:45:28;;;;;;;1.80;1.20;;;25.30;69.50;;;;;;5033150;28;20265;-63
2022/05/31 12:47:58;;;;;;;1.27;1.13;;;24.90;68.40;;;;;;5025427;28;20374;-63
2022/05/31 12:53:26;;;;;;;1.10;1.00;;;25.00;69.70;;;;;;5148834;27;20783;-62
2022/05/31 12:55:58;;;;;;;1.52;1.13;;;25.00;70.40;;;;;;5127891;27;20205;-62
2022/05/31 12:58:48;;;;;;;2.42;1.65;;;25.20;70.00;;;;;;5128754;27;20254;-64
2022/05/31 13:01:34;;;;;;;3.63;1.10;;;25.70;68.30;;;;;;5127669;27;20235;-62
2022/05/31 13:04:17;;;;;;;1.70;1.10;;;26.30;65.10;;;;;;5127079;27;20295;-63
2022/05/31 13:07:13;;;;;;;1.48;1.10;;;26.70;65.10;;;;;;5128023;27;20231;-64
2022/05/31 13:09:46;;;;;;;1.38;1.15;;;27.30;65.40;;;;;;5127071;27;20229;-63
2022/05/31 13:20:46;;;;;;;1.20;0.90;;;28.80;61.10;;;;;;5123730;27;20217;-63
2022/05/31 13:23:17;;;;;;;3.10;1.00;;;29.00;60.30;;;;;;5127319;27;20289;-65
2022/05/31 13:25:51;;;;;;;1.15;1.05;;;28.70;60.30;;;;;;5126957;27;20735;-64
2022/05/31 13:28:25;;;;;;;1.25;0.80;;;28.80;59.20;;;;;;5127175;27;20232;-63
2022/05/31 13:30:58;;;;;;;2.20;1.13;;;28.70;59.80;;;;;;5125619;27;20226;-63
2022/05/31 13:33:27;;;;;;;1.50;1.15;;;28.70;60.00;;;;;;5125781;27;20780;-63
2022/05/31 13:36:02;;;;;;;1.90;1.13;;;28.20;59.90;;;;;;5129032;27;20212;-63
2022/05/31 13:38:34;;;;;;;1.52;0.82;;;27.90;59.90;;;;;;5125279;27;20917;-65
2022/05/31 13:41:07;;;;;;;1.75;1.13;;;27.30;60.40;;;;;;5125683;27;20223;-63
2022/05/31 13:43:39;;;;;;;1.30;0.90;;;26.90;60.70;;;;;;5123967;27;21015;-63
2022/05/31 13:46:16;;;;;;;2.70;1.20;;;26.50;62.00;;;;;;5128979;27;20590;-63
2022/05/31 13:48:50;;;;;;;2.45;0.90;;;26.10;63.10;;;;;;5127033;27;20588;-63
2022/05/31 13:51:22;;;;;;;1.60;0.90;;;26.00;63.10;;;;;;5124183;27;20344;-63
2022/05/31 13:53:49;;;;;;;1.55;0.98;;;25.80;63.50;;;;;;5126113;27;20228;-63
2022/05/31 13:56:22;;;;;;;1.10;0.93;;;25.60;62.90;;;;;;5125451;27;20306;-63
2022/05/31 13:58:53;;;;;;;5.47;1.40;;;25.30;63.30;;;;;;5127255;27;20282;-62
2022/05/31 14:01:33;;;;;;;1.13;1.02;;;24.90;63.80;;;;;;5125669;27;20238;-62
2022/05/31 14:04:08;;;;;;;2.20;1.20;;;24.50;64.20;;;;;;5116323;27;20194;-62
2022/05/31 14:06:37;;;;;;;1.40;1.10;;;24.20;65.80;;;;;;5113459;27;20211;-63
2022/05/31 14:09:07;;;;;;;2.22;1.10;;;23.90;66.50;;;;;;5114364;27;20277;-62
2022/05/31 14:11:43;;;;;;;2.35;1.35;;;23.70;67.40;;;;;;5107423;27;20702;-63
2022/05/31 14:14:22;;;;;;;5.72;1.10;;;23.60;67.60;;;;;;5110075;27;20242;-63
2022/05/31 14:16:50;;;;;;;1.20;1.05;;;23.50;67.90;;;;;;5111461;27;20300;-62
2022/05/31 14:19:20;;;;;;;1.35;0.90;;;23.60;67.70;;;;;;5112734;27;20217;-62
2022/05/31 14:21:50;;;;;;;1.20;1.10;;;23.60;68.10;;;;;;5108107;27;20283;-62
2022/05/31 14:24:20;;;;;;;2.88;0.95;;;23.60;67.70;;;;;;5111589;27;20452;-62
2022/05/31 14:26:51;;;;;;;1.90;1.15;;;23.60;67.70;;;;;;5113125;27;20223;-62
2022/05/31 14:29:27;;;;;;;2.95;1.23;;;23.40;69.70;;;;;;5111916;27;20955;-62
2022/05/31 14:32:23;;;;;;;1.75;1.00;;;23.50;69.80;;;;;;5107372;27;20228;-62
2022/05/31 14:34:53;;;;;;;1.40;1.20;;;24.20;70.90;;;;;;5111954;27;20205;-62
2022/05/31 14:37:38;;;;;;;1.25;1.10;;;25.10;67.90;;;;;;5113574;27;21074;-63
2022/05/31 14:40:10;;;;;;;3.00;1.15;;;25.30;67.50;;;;;;5111371;27;20233;-65
2022/05/31 14:42:54;;;;;;;1.10;1.00;;;25.50;67.20;;;;;;5110800;27;20250;-65
2022/05/31 14:45:28;;;;;;;1.02;0.90;;;25.50;66.20;;;;;;5112717;27;20213;-64
2022/05/31 14:47:56;;;;;;;3.95;0.90;;;25.70;67.00;;;;;;5110533;27;20296;-65
2022/05/31 14:50:31;;;;;;;2.45;1.33;;;25.90;66.00;;;;;;5110453;27;20765;-65
2022/05/31 14:53:15;;;;;;;3.38;1.20;;;26.00;67.30;;;;;;5113083;27;20275;-65
2022/05/31 14:55:46;;;;;;;1.10;1.00;;;26.20;65.10;;;;;;5110869;27;20642;-64
2022/05/31 14:58:40;;;;;;;1.90;1.45;;;26.10;65.60;;;;;;5112076;27;20575;-65
2022/05/31 15:01:17;;;;;;;2.03;1.45;;;26.40;66.20;;;;;;5111478;27;20244;-65
2022/05/31 15:03:47;;;;;;;1.65;1.13;;;26.40;65.50;;;;;;5111452;27;20200;-64